Friday, April 25, 2014, 3:33 AM EDT
Back to Local

KPTW, Pottstown Limerick Airport

Location: Royersford, PA, United States Lat: 40.233
Local Time: 3:33 AM EDT ( 7:33 GMT) Lon: -75.55
Time Zone: US/Eastern Elev: 291 ft

Show me the last for .
Show Coded

Time T Td Feel RH Dir Speed Gust Alt SLP Vis Weather Sky Remarks
2014-04-25 02:54 39 22 - 49 - Calm - 30.03 30.02 10 CLR None
2014-04-25 01:54 40 20 - 44 - Calm - 30.04 30.04 10 CLR 6-hr Min Temp (2am): 39.9°F
6-hr Max Temp (2am): 55.9°F
2014-04-25 00:54 45 18 - 33 - Calm - 30.05 30.04 10 CLR 24-hr Min Temp (1am): 37.0°F
24-hr Max Temp (1am): 62.1°F
2014-04-24 23:54 48 14 - 25 - Calm - 30.05 30.04 10 CLR None
2014-04-24 22:54 50 12 47 21 30° 8 - 30.04 30.03 10 CLR None
2014-04-24 21:54 51 13 - 21 10° 5 - 30.04 30.03 10 CLR None
2014-04-24 20:54 52 14 - 21 20° 7 - 30.03 30.02 10 CLR None
2014-04-24 19:54 56 13 - 17 350° 9 - 30.01 30.00 10 CLR 6-hr Min Temp (8pm): 55.9°F
6-hr Max Temp (8pm): 62.1°F
2014-04-24 18:54 60 16 - 17 320° 7 - 29.98 29.98 10 CLR None
2014-04-24 17:54 61 18 - 18 330° 7 - 29.97 29.96 10 CLR None
2014-04-24 16:54 61 18 - 18 330° 12 - 29.96 29.96 10 CLR None
2014-04-24 15:54 60 17 - 18 320° 13 23 29.97 29.96 10 CLR None
2014-04-24 14:54 59 20 - 21 330° 21 25 29.99 29.98 10 CLR None
2014-04-24 13:54 57 20 - 23 320° 13 24 30.00 29.99 10 CLR 6-hr Min Temp (2pm): 42.1°F
6-hr Max Temp (2pm): 57.0°F
2014-04-24 12:54 55 19 - 24 340° 9 23 30.01 30.01 10 CLR None
2014-04-24 11:54 52 20 - 28 320° 14 25 30.05 30.04 10 CLR None
2014-04-24 10:54 50 20 44 30 290° 12 20 30.06 30.05 10 CLR None
2014-04-24 09:54 46 19 38 33 290° 9 22 30.06 30.06 10 CLR None
2014-04-24 08:54 45 19 36 35 310° 15 24 30.05 30.05 10 CLR None
2014-04-24 07:54 42 20 36 40 300° 12 - 30.04 30.03 10 CLR 6-hr Min Temp (8am): 37.0°F
6-hr Max Temp (8am): 42.1°F
2014-04-24 06:54 38 20 36 47 280° 3 - 30.02 30.02 10 CLR None
2014-04-24 05:54 38 20 33 47 290° 6 - 29.99 29.98 10 CLR None
2014-04-24 04:54 39 21 35 48 290° 6 - 29.96 29.95 10 CLR None
2014-04-24 03:54 41 23 35 48 310° 9 - 29.94 29.93 10 CLR None

Support USWX by starting your Amazon purchase here.